Parma, Arkansas
Current Conditions -  °F | °C
As of 6:15 PM on Friday 19 Dec 2014 (Local Time) from KCCA Reporting Station
Haze Haze  
Wind Chill: 41°   Ceiling: 3800
Heat Index: 41°   Visibility: 5mi
Dew Point: 37°   Wind: 0mph
Humidity: 87%   Direction: NA
Pressure: 30.24"   Gusts: NA
Location:  35.659°N, 92.1866°W
Report Text: KCCA 200015Z AUTO 00000KT 5SM BR OVC038 05/03 A3024 RMK AO2
Loading
Personal Weather Stations






























Interactive Weather Map New forecast layout! Learn more

10-Day Weather Forecast

Advertisements
Track Severe Weather on mobile